Time;durP1;ratioP1;P1;durP2;ratioP2;P2;SDS_P1;SDS_P2;PMS_P1;PMS_P2;Temp;Humidity;BMP_temperature;BMP_pressure;BME280_temperature;BME280_humidity;BME280_pressure;Samples;Min_cycle;Max_cycle;Signal;HPM_P1;HPM_P2
2022/09/27 00:01:21;;;;;;;;;;;;;;;21.39;51.70;100096.63;7283499;19;153322;-58
2022/09/27 00:03:48;;;;;;;;;;;;;;;21.39;51.71;100098.59;7282225;19;154886;-57
2022/09/27 00:06:19;;;;;;;;;;;;;;;21.41;52.08;100096.28;7283382;19;152134;-58
2022/09/27 00:08:53;;;;;;;;;;;;;;;21.39;51.93;100098.59;7283671;19;152789;-58
2022/09/27 00:11:25;;;;;;;;;;;;;;;21.41;52.32;100096.28;7292564;19;153686;-58
2022/09/27 00:13:53;;;;;;;;;;;;;;;21.42;51.86;100092.31;7284692;19;153258;-58
2022/09/27 00:16:21;;;;;;;;;;;;;;;21.43;52.13;100100.41;7283367;19;153679;-58
2022/09/27 00:18:48;;;;;;;;;;;;;;;21.42;52.30;100111.97;7284780;19;151973;-57
2022/09/27 00:21:15;;;;;;;;;;;;;;;21.43;51.74;100106.03;7285212;19;153250;-57
2022/09/27 00:23:42;;;;;;;;;;;;;;;21.37;52.28;100104.56;7283502;19;153322;-58
2022/09/27 00:26:11;;;;;;;;;;;;;;;21.33;52.07;100109.19;7285257;19;152018;-57
2022/09/27 00:28:38;;;;;;;;;;;;;;;21.30;52.34;100107.84;7284029;19;153745;-57
2022/09/27 00:31:13;;;;;;;;;;;;;;;21.27;52.42;100108.53;7284514;19;153437;-57
2022/09/27 00:33:40;;;;;;;;;;;;;;;21.28;52.56;100110.19;7291956;19;152026;-57
2022/09/27 00:36:08;;;;;;;;;;;;;;;21.23;52.86;100107.56;7283799;19;154672;-58
2022/09/27 00:38:35;;;;;;;;;;;;;;;21.23;52.53;100103.91;7284295;19;152433;-58
2022/09/27 00:41:03;;;;;;;;;;;;;;;21.23;52.46;100115.16;7286097;19;153663;-58
2022/09/27 00:43:42;;;;;;;;;;;;;;;21.21;52.67;100104.25;7278251;19;154024;-58
2022/09/27 00:46:09;;;;;;;;;;;;;;;21.21;52.77;100103.44;7285527;19;152253;-57
2022/09/27 00:48:37;;;;;;;;;;;;;;;21.19;52.53;100102.94;7284307;19;153185;-57
2022/09/27 00:51:06;;;;;;;;;;;;;;;21.17;52.69;100103.25;7283427;19;153637;-57
2022/09/27 00:53:35;;;;;;;;;;;;;;;21.19;52.29;100102.94;7283916;19;152085;-58
2022/09/27 00:56:07;;;;;;;;;;;;;;;21.19;52.48;100102.94;7291650;19;152941;-58
2022/09/27 00:58:36;;;;;;;;;;;;;;;21.18;52.20;100104.09;7267504;19;153404;-58
2022/09/27 01:01:06;;;;;;;;;;;;;;;21.18;52.54;100098.47;7280512;19;153832;-58
2022/09/27 01:03:39;;;;;;;;;;;;;;;21.16;52.50;100107.25;7281296;19;154216;-58
2022/09/27 01:06:08;;;;;;;;;;;;;;;21.17;52.38;100108.06;7282230;19;152488;-58
2022/09/27 01:08:35;;;;;;;;;;;;;;;21.16;52.35;100109.25;7284029;19;153539;-58
2022/09/27 01:11:13;;;;;;;;;;;;;;;21.16;52.37;100112.88;7282571;19;154134;-58
2022/09/27 01:14:07;;;;;;;;;;;;;;;21.15;52.72;100111.22;7282338;19;153197;-58
2022/09/27 01:16:45;;;;;;;;;;;;;;;21.16;52.51;100100.81;7282596;19;154312;-57
2022/09/27 01:19:15;;;;;;;;;;;;;;;21.16;52.50;100106.44;7287993;19;154554;-58
2022/09/27 01:21:42;;;;;;;;;;;;;;;21.15;52.53;100101.97;7284484;19;152730;-58
2022/09/27 01:24:31;;;;;;;;;;;;;;;21.13;52.44;100091.03;7280769;19;153155;-58
2022/09/27 01:26:57;;;;;;;;;;;;;;;21.13;52.72;100085.44;7284234;19;152527;-58
2022/09/27 01:29:34;;;;;;;;;;;;;;;21.11;52.19;100098.13;7283290;19;152862;-59
2022/09/27 01:32:04;;;;;;;;;;;;;;;21.10;52.23;100102.09;7280515;19;154300;-59
2022/09/27 01:34:38;;;;;;;;;;;;;;;21.08;52.47;100099.59;7278800;19;152223;-59
2022/09/27 01:37:08;;;;;;;;;;;;;;;21.09;52.34;100092.84;7277836;19;154143;-59
2022/09/27 01:39:53;;;;;;;;;;;;;;;21.08;52.47;100093.16;7272635;19;155021;-59
2022/09/27 01:42:25;;;;;;;;;;;;;;;21.05;52.38;100102.28;7290465;19;152194;-58
2022/09/27 01:45:09;;;;;;;;;;;;;;;21.06;52.58;100101.94;7280901;19;154534;-58
2022/09/27 01:47:44;;;;;;;;;;;;;;;21.07;52.63;100103.59;7282929;19;152977;-58
2022/09/27 01:50:18;;;;;;;;;;;;;;;21.06;52.14;100104.75;7276469;19;153711;-58
2022/09/27 01:52:54;;;;;;;;;;;;;;;21.05;52.64;100099.47;7283488;19;154721;-59
2022/09/27 01:55:23;;;;;;;;;;;;;;;21.04;52.65;100087.41;7278423;19;152480;-59
2022/09/27 01:58:00;;;;;;;;;;;;;;;21.03;52.38;100082.13;7281044;19;153645;-59
2022/09/27 02:00:27;;;;;;;;;;;;;;;21.02;52.36;100086.91;7279014;19;152867;-58
2022/09/27 02:03:07;;;;;;;;;;;;;;;21.02;52.21;100095.34;7287168;19;151803;-58
2022/09/27 02:06:02;;;;;;;;;;;;;;;21.01;52.32;100095.66;7280883;19;152684;-57
2022/09/27 02:08:56;;;;;;;;;;;;;;;21.01;52.43;100101.28;7282090;19;151923;-57
2022/09/27 02:11:49;;;;;;;;;;;;;;;20.99;52.40;100101.59;7282816;19;152745;-57
2022/09/27 02:14:27;;;;;;;;;;;;;;;20.99;52.18;100106.41;7278253;19;153052;-58
2022/09/27 02:16:59;;;;;;;;;;;;;;;20.96;52.45;100096.66;7282968;19;152495;-57
2022/09/27 02:19:25;;;;;;;;;;;;;;;20.95;52.47;100099.78;7279916;19;153392;-57
2022/09/27 02:21:55;;;;;;;;;;;;;;;20.92;52.38;100104.09;7281660;19;153871;-57
2022/09/27 02:24:29;;;;;;;;;;;;;;;20.91;52.46;100107.22;7276812;19;152535;-57
2022/09/27 02:27:00;;;;;;;;;;;;;;;20.89;52.70;100101.97;7287858;19;155527;-57
2022/09/27 02:29:33;;;;;;;;;;;;;;;20.86;52.54;100109.06;7280007;19;152263;-58
2022/09/27 02:32:00;;;;;;;;;;;;;;;20.85;52.38;100107.41;7281498;19;154233;-57
2022/09/27 02:34:29;;;;;;;;;;;;;;;20.83;52.77;100108.91;7277185;19;153478;-57
2022/09/27 02:36:56;;;;;;;;;;;;;;;20.81;53.00;100097.16;7282332;19;152286;-58
2022/09/27 02:39:23;;;;;;;;;;;;;;;20.79;52.98;100093.88;7280131;19;153395;-57
2022/09/27 02:41:50;;;;;;;;;;;;;;;20.80;52.76;100101.16;7280471;19;153489;-57
2022/09/27 02:44:20;;;;;;;;;;;;;;;20.78;52.72;100098.66;7277865;19;152780;-57
2022/09/27 02:47:05;;;;;;;;;;;;;;;20.77;52.79;100101.78;7281419;19;153656;-57
2022/09/27 02:49:54;;;;;;;;;;;;;;;20.75;52.93;100101.31;7281464;19;152662;-57
2022/09/27 02:52:42;;;;;;;;;;;;;;;20.73;53.35;100095.19;7280957;19;152350;-57
2022/09/27 02:55:27;;;;;;;;;;;;;;;20.71;53.03;100086.28;7277977;19;153687;-57
2022/09/27 02:58:15;;;;;;;;;;;;;;;20.70;53.47;100082.66;7280968;19;151763;-57
2022/09/27 03:00:58;;;;;;;;;;;;;;;20.70;53.53;100079.84;7278692;19;152113;-57
2022/09/27 03:03:24;;;;;;;;;;;;;;;20.70;53.23;100070.59;7277543;19;153245;-57
2022/09/27 03:05:54;;;;;;;;;;;;;;;20.69;53.41;100074.56;7280258;19;152373;-57
2022/09/27 03:08:22;;;;;;;;;;;;;;;20.67;53.57;100071.28;7286959;19;152581;-57
2022/09/27 03:10:49;;;;;;;;;;;;;;;20.67;53.72;100066.44;7286709;19;154675;-57
2022/09/27 03:13:16;;;;;;;;;;;;;;;20.66;53.30;100059.22;7293428;19;152563;-57
2022/09/27 03:15:43;;;;;;;;;;;;;;;20.64;53.46;100066.28;7284750;19;154116;-57
2022/09/27 03:18:10;;;;;;;;;;;;;;;20.64;53.42;100072.75;7286839;19;152518;-57
2022/09/27 03:20:37;;;;;;;;;;;;;;;20.63;53.28;100073.88;7285813;19;153011;-56
2022/09/27 03:23:04;;;;;;;;;;;;;;;20.61;53.37;100067.78;7284931;19;154708;-56
2022/09/27 03:25:31;;;;;;;;;;;;;;;20.61;53.32;100070.59;7284699;19;152617;-58
2022/09/27 03:27:58;;;;;;;;;;;;;;;20.59;53.58;100066.47;7283842;19;152932;-58
2022/09/27 03:30:25;;;;;;;;;;;;;;;20.58;53.20;100064.84;7284950;19;154255;-58
2022/09/27 03:32:52;;;;;;;;;;;;;;;20.57;53.25;100068.78;7286192;19;152236;-58
2022/09/27 03:35:19;;;;;;;;;;;;;;;20.55;53.74;100074.72;7290668;19;152569;-57
2022/09/27 03:37:46;;;;;;;;;;;;;;;20.54;53.67;100084.28;7287091;19;152379;-57
2022/09/27 03:40:13;;;;;;;;;;;;;;;20.53;53.66;100079.84;7284950;19;154241;-57
2022/09/27 03:42:40;;;;;;;;;;;;;;;20.53;53.63;100068.63;7283632;19;154399;-57
2022/09/27 03:45:14;;;;;;;;;;;;;;;20.53;53.47;100070.59;7282959;19;152378;-57
2022/09/27 03:47:41;;;;;;;;;;;;;;;20.52;53.77;100077.38;7285918;19;153681;-57
2022/09/27 03:50:09;;;;;;;;;;;;;;;20.52;53.31;100072.59;7280403;19;153405;-57
2022/09/27 03:52:36;;;;;;;;;;;;;;;20.53;53.61;100073.41;7283704;19;152551;-57
2022/09/27 03:55:04;;;;;;;;;;;;;;;20.53;53.56;100081.84;7284635;19;152841;-57
2022/09/27 03:57:31;;;;;;;;;;;;;;;20.52;53.50;100072.59;7291975;19;153994;-57
2022/09/27 03:59:58;;;;;;;;;;;;;;;20.51;53.34;100072.91;7282428;19;153533;-57
2022/09/27 04:02:26;;;;;;;;;;;;;;;20.51;53.13;100078.50;7284026;19;153505;-57
2022/09/27 04:05:01;;;;;;;;;;;;;;;20.51;52.95;100067.28;7283231;19;152253;-57
2022/09/27 04:07:30;;;;;;;;;;;;;;;20.49;53.14;100076.03;7285037;19;153489;-57
2022/09/27 04:09:56;;;;;;;;;;;;;;;20.50;52.93;100074.88;7283320;19;153624;-57
2022/09/27 04:12:23;;;;;;;;;;;;;;;20.49;52.92;100069.63;7285252;19;151886;-57
2022/09/27 04:14:55;;;;;;;;;;;;;;;20.48;53.21;100063.19;7285144;19;153529;-57
2022/09/27 04:17:24;;;;;;;;;;;;;;;20.48;53.22;100063.19;7290217;19;152907;-57
2022/09/27 04:19:51;;;;;;;;;;;;;;;20.48;53.22;100082.00;7282758;19;153515;-57
2022/09/27 04:22:18;;;;;;;;;;;;;;;20.47;53.01;100080.34;7283440;19;153383;-58
2022/09/27 04:24:45;;;;;;;;;;;;;;;20.46;53.34;100078.69;7282211;19;151802;-57
2022/09/27 04:27:12;;;;;;;;;;;;;;;20.46;52.96;100075.88;7284303;19;153808;-58
2022/09/27 04:29:42;;;;;;;;;;;;;;;20.44;53.25;100081.00;7282458;19;155803;-58
2022/09/27 04:32:08;;;;;;;;;;;;;;;20.44;53.32;100079.03;7284569;19;152019;-58
2022/09/27 04:37:28;;;;;;;;;;;;;;;20.44;52.94;100076.22;7284911;19;154353;-57
2022/09/27 04:39:55;;;;;;;;;;;;;;;20.41;53.19;100079.66;7289866;19;152619;-57
2022/09/27 04:42:22;;;;;;;;;;;;;;;20.41;53.22;100079.66;7282438;19;153471;-57
2022/09/27 04:44:56;;;;;;;;;;;;;;;20.41;53.17;100074.06;7279955;19;152180;-57
2022/09/27 04:47:23;;;;;;;;;;;;;;;20.39;53.11;100071.59;7283443;19;152138;-57
2022/09/27 04:49:50;;;;;;;;;;;;;;;20.38;53.41;100069.94;7282091;19;153631;-57
2022/09/27 04:52:17;;;;;;;;;;;;;;;20.38;53.34;100061.50;7280391;19;152466;-58
2022/09/27 04:54:44;;;;;;;;;;;;;;;20.36;53.22;100071.41;7283114;19;152885;-58
2022/09/27 04:57:11;;;;;;;;;;;;;;;20.33;53.29;100072.06;7281050;19;154291;-57
2022/09/27 04:59:39;;;;;;;;;;;;;;;20.33;53.56;100064.47;7283111;19;152221;-57
2022/09/27 05:02:06;;;;;;;;;;;;;;;20.31;53.65;100063.13;7289939;19;153372;-57
2022/09/27 05:04:33;;;;;;;;;;;;;;;20.29;53.34;100057.84;7280909;19;152918;-57
2022/09/27 05:07:00;;;;;;;;;;;;;;;20.31;53.72;100060.34;7283890;19;152741;-57
2022/09/27 05:09:27;;;;;;;;;;;;;;;20.30;53.30;100053.09;7281829;19;153099;-58
2022/09/27 05:11:54;;;;;;;;;;;;;;;20.32;53.52;100062.81;7285077;19;151918;-58
2022/09/27 05:14:21;;;;;;;;;;;;;;;20.39;53.49;100065.16;7282161;19;153966;-56
2022/09/27 05:16:48;;;;;;;;;;;;;;;20.42;54.12;100058.88;7283032;19;153525;-56
2022/09/27 05:19:15;;;;;;;;;;;;;;;20.43;54.40;100057.72;7276257;19;152424;-58
2022/09/27 05:21:42;;;;;;;;;;;;;;;20.44;54.61;100053.78;7285401;19;153111;-57
2022/09/27 05:24:09;;;;;;;;;;;;;;;20.47;54.72;100058.72;7284056;19;153455;-57
2022/09/27 05:26:36;;;;;;;;;;;;;;;20.51;55.27;100053.25;7283607;19;153517;-57
2022/09/27 05:29:03;;;;;;;;;;;;;;;20.55;55.30;100057.88;7277816;19;153738;-57
2022/09/27 05:31:30;;;;;;;;;;;;;;;20.59;55.41;100049.63;7282177;19;151615;-57
2022/09/27 05:33:57;;;;;;;;;;;;;;;20.64;55.68;100055.06;7282857;19;152750;-57
2022/09/27 05:36:24;;;;;;;;;;;;;;;20.67;55.34;100052.41;7280280;19;152402;-58
2022/09/27 05:38:52;;;;;;;;;;;;;;;20.72;55.51;100043.84;7281755;19;152371;-59
2022/09/27 05:41:19;;;;;;;;;;;;;;;20.76;54.98;100049.59;7283249;19;153812;-58
2022/09/27 05:43:46;;;;;;;;;;;;;;;20.81;55.23;100050.25;7280005;19;153482;-58
2022/09/27 05:46:13;;;;;;;;;;;;;;;20.85;54.83;100045.63;7289905;19;152648;-58
2022/09/27 05:48:39;;;;;;;;;;;;;;;20.91;54.49;100042.66;7280646;19;152312;-58
2022/09/27 05:51:07;;;;;;;;;;;;;;;20.95;54.36;100038.00;7281296;19;152900;-58
2022/09/27 05:53:34;;;;;;;;;;;;;;;20.98;54.42;100041.00;7277566;19;153371;-58
2022/09/27 05:56:02;;;;;;;;;;;;;;;21.04;54.35;100033.19;7281091;19;153431;-58
2022/09/27 05:58:29;;;;;;;;;;;;;;;21.08;54.14;100037.00;7282026;19;151840;-58
2022/09/27 06:00:56;;;;;;;;;;;;;;;21.11;54.40;100041.97;7279602;19;154472;-58
2022/09/27 06:03:23;;;;;;;;;;;;;;;21.14;54.08;100032.88;7280761;19;154048;-58
2022/09/27 06:05:50;;;;;;;;;;;;;;;21.18;54.13;100031.06;7282325;19;154189;-58
2022/09/27 06:08:19;;;;;;;;;;;;;;;21.20;53.85;100035.19;7288081;19;153836;-58
2022/09/27 06:10:46;;;;;;;;;;;;;;;21.23;53.66;100028.91;7281724;19;151695;-58
2022/09/27 06:13:14;;;;;;;;;;;;;;;21.27;53.37;100032.69;7281097;19;152104;-58
2022/09/27 06:15:42;;;;;;;;;;;;;;;21.29;53.19;100037.97;7280218;19;153540;-58
2022/09/27 06:18:11;;;;;;;;;;;;;;;21.33;53.52;100038.13;7282257;19;152278;-58
2022/09/27 06:20:38;;;;;;;;;;;;;;;21.37;53.00;100039.09;7281596;19;153652;-57
2022/09/27 06:23:10;;;;;;;;;;;;;;;21.37;52.95;100041.91;7281331;19;154191;-57
2022/09/27 06:25:38;;;;;;;;;;;;;;;21.39;52.10;100051.66;7275770;19;152027;-58
2022/09/27 06:28:05;;;;;;;;;;;;;;;21.41;51.85;100048.50;7288178;19;153571;-58
2022/09/27 06:30:32;;;;;;;;;;;;;;;21.41;51.85;100040.91;7278462;19;153626;-57
2022/09/27 06:33:00;;;;;;;;;;;;;;;21.43;51.50;100030.16;7281592;19;153900;-58
2022/09/27 06:35:28;;;;;;;;;;;;;;;21.46;51.55;100025.84;7279224;19;153502;-58
2022/09/27 06:37:55;;;;;;;;;;;;;;;21.48;51.08;100023.53;7282222;19;152392;-58
2022/09/27 06:40:25;;;;;;;;;;;;;;;21.47;51.09;100013.44;7279929;19;153508;-58
2022/09/27 06:42:53;;;;;;;;;;;;;;;21.47;50.91;100010.63;7279426;19;153349;-58
2022/09/27 06:45:19;;;;;;;;;;;;;;;21.46;50.31;100011.78;7278286;19;151996;-58
2022/09/27 06:47:46;;;;;;;;;;;;;;;21.46;50.24;100008.97;7279999;19;153520;-58
2022/09/27 06:50:13;;;;;;;;;;;;;;;21.45;49.94;100008.13;7285987;19;154143;-58
2022/09/27 06:52:47;;;;;;;;;;;;;;;21.34;43.40;100018.13;7279419;19;153331;-56
2022/09/27 06:55:17;;;;;;;;;;;;;;;21.06;43.81;100011.25;7273902;19;154499;-56
2022/09/27 07:00:33;;;;;;;;;;;;;;;21.09;45.16;100004.94;7277642;19;152264;-56
2022/09/27 07:03:02;;;;;;;;;;;;;;;21.13;45.98;100009.59;7280340;19;153686;-57
2022/09/27 07:05:29;;;;;;;;;;;;;;;21.15;45.37;100020.50;7275984;19;154013;-56
2022/09/27 07:07:57;;;;;;;;;;;;;;;21.16;45.66;100030.59;7281118;19;153064;-56
2022/09/27 07:10:25;;;;;;;;;;;;;;;21.14;46.05;100028.09;7279135;19;153434;-57
2022/09/27 07:12:53;;;;;;;;;;;;;;;21.12;45.53;100023.94;7287576;19;153925;-56
2022/09/27 07:15:22;;;;;;;;;;;;;;;21.12;45.89;100021.16;7279492;19;152542;-56
2022/09/27 07:17:58;;;;;;;;;;;;;;;21.10;46.43;100027.09;7279616;19;152032;-57
2022/09/27 07:20:26;;;;;;;;;;;;;;;21.09;46.46;100038.66;7279810;19;153443;-57
2022/09/27 07:22:53;;;;;;;;;;;;;;;21.06;46.41;100028.91;7280338;19;154136;-57
2022/09/27 07:25:20;;;;;;;;;;;;;;;21.05;46.46;100027.25;7275466;19;153614;-56
2022/09/27 07:27:48;;;;;;;;;;;;;;;21.07;47.32;100024.13;7280739;19;152120;-56
2022/09/27 07:30:15;;;;;;;;;;;;;;;21.13;47.72;100031.22;7277845;19;152826;-55
2022/09/27 07:32:43;;;;;;;;;;;;;;;21.11;47.58;100033.53;7279619;19;152503;-58
2022/09/27 07:35:16;;;;;;;;;;;;;;;21.13;47.49;100025.63;7284716;19;152079;-56
2022/09/27 07:37:48;;;;;;;;;;;;;;;21.18;48.22;100022.63;7281584;19;153255;-55
2022/09/27 07:40:15;;;;;;;;;;;;;;;21.15;47.34;100017.69;7279929;19;153204;-56
2022/09/27 07:42:42;;;;;;;;;;;;;;;21.12;47.16;100023.94;7277550;19;155252;-56
2022/09/27 07:45:10;;;;;;;;;;;;;;;21.12;46.80;100018.34;7275154;19;152169;-56
2022/09/27 07:47:40;;;;;;;;;;;;;;;21.07;46.57;100021.31;7279444;19;153747;-56
2022/09/27 07:50:11;;;;;;;;;;;;;;;21.07;46.94;100007.28;7277718;19;153694;-56
2022/09/27 07:52:38;;;;;;;;;;;;;;;21.07;46.41;100002.50;7284353;19;153336;-59
2022/09/27 07:55:06;;;;;;;;;;;;;;;21.06;47.15;100000.00;7284673;19;153476;-55
2022/09/27 07:57:33;;;;;;;;;;;;;;;21.09;46.39;99999.31;7293343;19;153849;-55
2022/09/27 07:59:59;;;;;;;;;;;;;;;21.03;46.42;100001.47;7284827;19;153485;-55
2022/09/27 08:02:26;;;;;;;;;;;;;;;21.04;46.78;99997.53;7286851;19;153357;-56
2022/09/27 08:05:03;;;;;;;;;;;;;;;21.07;46.49;99996.88;7283138;19;152177;-56
2022/09/27 08:07:31;;;;;;;;;;;;;;;21.08;46.29;99992.06;7286351;19;152830;-55
2022/09/27 08:09:58;;;;;;;;;;;;;;;21.06;47.23;99995.22;7283710;19;154373;-55
2022/09/27 08:12:25;;;;;;;;;;;;;;;21.08;49.29;99983.63;7285474;19;152384;-56
2022/09/27 08:15:00;;;;;;;;;;;;;;;21.09;50.68;99999.31;7284572;19;152710;-57
2022/09/27 08:17:32;;;;;;;;;;;;;;;21.25;51.25;99994.84;7284065;19;153330;-55
2022/09/27 08:20:04;;;;;;;;;;;;;;;21.29;49.52;99987.41;7238399;19;157657;-55
2022/09/27 08:22:31;;;;;;;;;;;;;;;21.36;48.74;99986.84;7275720;19;153261;-55
2022/09/27 08:25:06;;;;;;;;;;;;;;;21.38;48.55;99985.38;7276898;19;152290;-55
2022/09/27 08:27:35;;;;;;;;;;;;;;;21.33;48.32;99979.94;7281714;19;153249;-55
2022/09/27 08:30:02;;;;;;;;;;;;;;;21.26;47.90;99972.03;7275634;19;153675;-55
2022/09/27 08:32:29;;;;;;;;;;;;;;;21.28;48.21;99974.50;7278497;19;152086;-56
2022/09/27 08:35:08;;;;;;;;;;;;;;;21.29;47.39;99978.97;7276713;19;153946;-56
2022/09/27 08:37:34;;;;;;;;;;;;;;;21.25;47.37;99972.38;7279177;19;154060;-56
2022/09/27 08:40:02;;;;;;;;;;;;;;;21.18;48.22;99970.09;7283998;19;152800;-56
2022/09/27 08:42:31;;;;;;;;;;;;;;;21.17;47.84;99967.59;7278423;19;154081;-56
2022/09/27 08:45:09;;;;;;;;;;;;;;;21.14;47.83;99968.28;7276206;19;152562;-56
2022/09/27 08:47:42;;;;;;;;;;;;;;;21.11;48.05;99968.94;7278734;19;153264;-55
2022/09/27 08:50:18;;;;;;;;;;;;;;;21.09;48.54;99969.25;7276767;19;153582;-56
2022/09/27 08:52:47;;;;;;;;;;;;;;;21.07;48.13;99965.97;7279002;19;152957;-56
2022/09/27 08:55:37;;;;;;;;;;;;;;;21.04;48.43;99954.56;7275255;19;155219;-56
2022/09/27 08:58:12;;;;;;;;;;;;;;;21.03;48.09;99962.16;7276353;19;153487;-56
2022/09/27 09:00:38;;;;;;;;;;;;;;;21.01;48.19;99970.13;7275690;19;152490;-56
2022/09/27 09:03:18;;;;;;;;;;;;;;;20.99;48.27;99961.19;7282590;19;152059;-56
2022/09/27 09:06:03;;;;;;;;;;;;;;;20.99;48.34;99964.00;7276535;19;152708;-56
2022/09/27 09:08:32;;;;;;;;;;;;;;;20.97;48.28;99969.16;7280871;19;153598;-56
2022/09/27 09:14:16;;;;;;;;;;;;;;;20.90;48.41;99954.78;7279526;19;152661;-56
2022/09/27 09:16:51;;;;;;;;;;;;;;;20.89;48.22;99961.56;7279518;19;154275;-56
2022/09/27 09:19:30;;;;;;;;;;;;;;;20.86;48.43;99960.25;7278660;19;154289;-56
2022/09/27 09:22:12;;;;;;;;;;;;;;;20.84;48.36;99956.97;7276678;19;155332;-56
2022/09/27 09:24:44;;;;;;;;;;;;;;;20.81;48.25;99956.78;7280230;19;152430;-55
2022/09/27 09:27:24;;;;;;;;;;;;;;;20.79;48.01;99947.88;7285512;19;154780;-56
2022/09/27 09:30:00;;;;;;;;;;;;;;;20.76;48.21;99946.56;7278525;19;152806;-56
2022/09/27 09:32:30;;;;;;;;;;;;;;;20.73;48.30;99947.25;7280053;19;154595;-56
2022/09/27 09:35:02;;;;;;;;;;;;;;;20.73;48.29;99946.41;7278097;19;153004;-56
2022/09/27 09:37:32;;;;;;;;;;;;;;;20.72;48.60;99948.38;7280320;19;153120;-56
2022/09/27 09:40:02;;;;;;;;;;;;;;;20.70;48.74;99945.09;7277349;19;153887;-56
2022/09/27 09:42:37;;;;;;;;;;;;;;;20.67;48.54;99934.53;7280320;19;153293;-55
2022/09/27 09:45:16;;;;;;;;;;;;;;;20.66;48.81;99948.91;7279929;19;153217;-56
2022/09/27 09:47:45;;;;;;;;;;;;;;;20.64;48.58;99940.00;7279752;19;153369;-56
2022/09/27 09:50:11;;;;;;;;;;;;;;;20.62;48.52;99942.31;7287766;19;152654;-56
2022/09/27 09:52:41;;;;;;;;;;;;;;;20.59;48.63;99943.81;7279368;19;154318;-56
2022/09/27 09:55:19;;;;;;;;;;;;;;;20.56;48.95;99936.06;7280809;19;152591;-56
2022/09/27 09:57:54;;;;;;;;;;;;;;;20.56;48.62;99935.22;7281103;19;153533;-56
2022/09/27 10:00:21;;;;;;;;;;;;;;;20.56;48.75;99940.84;7276655;19;152918;-56
2022/09/27 10:02:50;;;;;;;;;;;;;;;20.54;48.88;99929.13;7281186;19;152916;-56
2022/09/27 10:05:26;;;;;;;;;;;;;;;20.53;49.20;99931.13;7278626;19;154012;-56
2022/09/27 10:07:57;;;;;;;;;;;;;;;20.51;48.83;99922.19;7279160;19;154668;-56
2022/09/27 10:10:23;;;;;;;;;;;;;;;20.49;48.92;99927.31;7279708;19;153063;-56
2022/09/27 10:12:51;;;;;;;;;;;;;;;20.48;49.26;99922.06;7288012;19;153884;-56
2022/09/27 10:15:19;;;;;;;;;;;;;;;20.49;48.98;99915.28;7277892;19;152246;-56
2022/09/27 10:17:51;;;;;;;;;;;;;;;20.46;49.46;99922.38;7279825;19;153740;-56
2022/09/27 10:20:23;;;;;;;;;;;;;;;20.45;49.58;99911.47;7280764;19;153482;-56
2022/09/27 10:22:54;;;;;;;;;;;;;;;20.43;49.50;99900.59;7281474;19;152273;-56
2022/09/27 10:25:20;;;;;;;;;;;;;;;20.44;49.13;99899.44;7279619;19;153864;-56
2022/09/27 10:27:49;;;;;;;;;;;;;;;20.42;49.21;99894.16;7281217;19;153070;-56
2022/09/27 10:30:30;;;;;;;;;;;;;;;20.41;49.37;99894.47;7281082;19;152659;-55
2022/09/27 10:32:59;;;;;;;;;;;;;;;20.41;49.70;99891.69;7282820;19;152589;-56
2022/09/27 10:35:29;;;;;;;;;;;;;;;20.39;49.53;99886.41;7287206;19;151847;-55
2022/09/27 10:38:12;;;;;;;;;;;;;;;20.38;49.60;99881.97;7280071;19;154257;-56
2022/09/27 10:40:39;;;;;;;;;;;;;;;20.37;49.83;99887.91;7279338;19;154005;-56
2022/09/27 10:43:25;;;;;;;;;;;;;;;20.36;49.85;99881.47;7282993;19;152295;-55
2022/09/27 10:46:07;;;;;;;;;;;;;;;20.36;49.53;99891.84;7278949;19;152781;-56
2022/09/27 10:48:36;;;;;;;;;;;;;;;20.35;49.72;99876.19;7280379;19;153595;-56
2022/09/27 10:51:04;;;;;;;;;;;;;;;20.34;49.70;99877.34;7279881;19;152608;-56
2022/09/27 10:53:32;;;;;;;;;;;;;;;20.33;49.85;99881.31;7281525;19;153099;-56
2022/09/27 10:56:00;;;;;;;;;;;;;;;20.32;50.01;99874.03;7288220;19;153540;-56
2022/09/27 10:58:29;;;;;;;;;;;;;;;20.30;50.28;99860.38;7279837;19;153396;-55
2022/09/27 11:01:02;;;;;;;;;;;;;;;20.31;50.11;99870.41;7277673;19;153947;-55
2022/09/27 11:03:30;;;;;;;;;;;;;;;20.29;50.14;99869.91;7280393;19;153435;-55
2022/09/27 11:05:58;;;;;;;;;;;;;;;20.28;49.98;99854.22;7277935;19;152137;-55
2022/09/27 11:08:32;;;;;;;;;;;;;;;20.27;50.56;99862.97;7279019;19;152584;-55
2022/09/27 11:11:00;;;;;;;;;;;;;;;20.27;50.42;99860.16;7281135;19;152138;-55
2022/09/27 11:13:31;;;;;;;;;;;;;;;20.26;50.28;99883.78;7280340;19;152739;-55
2022/09/27 11:15:58;;;;;;;;;;;;;;;20.24;50.47;99886.91;7278382;19;153780;-55
2022/09/27 11:18:43;;;;;;;;;;;;;;;20.23;50.57;99890.03;7287374;19;152673;-55
2022/09/27 11:21:17;;;;;;;;;;;;;;;20.23;50.40;99879.63;7279767;19;153530;-54
2022/09/27 11:24:06;;;;;;;;;;;;;;;20.23;50.49;99878.81;7276852;19;151761;-56
2022/09/27 11:26:53;;;;;;;;;;;;;;;20.21;50.80;99875.53;7280694;19;152832;-56
2022/09/27 11:29:45;;;;;;;;;;;;;;;20.21;50.74;99862.34;7284394;19;154194;-56
2022/09/27 11:32:35;;;;;;;;;;;;;;;20.20;50.72;99859.84;7287645;19;152501;-56
2022/09/27 11:35:10;;;;;;;;;;;;;;;20.21;50.87;99861.50;7282627;19;153777;-56
2022/09/27 11:37:52;;;;;;;;;;;;;;;20.21;50.92;99861.50;7286095;19;155001;-56
2022/09/27 11:40:59;;;;;;;;;;;;;;;20.20;50.69;99862.66;7284675;19;152232;-56
2022/09/27 11:43:33;;;;;;;;;;;;;;;20.19;51.08;99853.41;7288193;19;153458;-56
2022/09/27 11:46:16;;;;;;;;;;;;;;;20.18;51.10;99848.13;7284094;19;152685;-56
2022/09/27 11:49:19;;;;;;;;;;;;;;;20.17;50.97;99855.72;7285206;19;152800;-56
2022/09/27 11:52:21;;;;;;;;;;;;;;;20.16;50.91;99854.09;7284827;19;154210;-56
2022/09/27 11:55:08;;;;;;;;;;;;;;;20.16;51.12;99850.47;7281522;19;152246;-56
2022/09/27 11:57:45;;;;;;;;;;;;;;;20.15;50.99;99849.63;7285410;19;152637;-56
2022/09/27 12:00:25;;;;;;;;;;;;;;;20.16;51.14;99850.47;7282817;19;153916;-56
2022/09/27 12:03:04;;;;;;;;;;;;;;;20.15;51.20;99831.97;7286006;19;154520;-54
2022/09/27 12:05:30;;;;;;;;;;;;;;;20.14;51.14;99839.56;7284737;19;153312;-56
2022/09/27 12:08:14;;;;;;;;;;;;;;;20.14;51.19;99833.13;7293263;19;154063;-56
2022/09/27 12:10:45;;;;;;;;;;;;;;;20.13;51.26;99826.69;7285699;19;153281;-54
2022/09/27 12:13:13;;;;;;;;;;;;;;;20.16;51.05;99820.44;7284993;19;153874;-56
2022/09/27 12:15:42;;;;;;;;;;;;;;;20.16;51.20;99814.00;7285004;19;152476;-56
2022/09/27 12:18:19;;;;;;;;;;;;;;;20.15;51.67;99815.97;7286707;19;153128;-56
2022/09/27 12:20:45;;;;;;;;;;;;;;;20.17;51.20;99818.47;7284015;19;152826;-56
2022/09/27 12:23:44;;;;;;;;;;;;;;;20.16;51.24;99814.84;7286476;19;151825;-55
2022/09/27 12:26:14;;;;;;;;;;;;;;;20.16;51.65;99814.00;7283097;19;153470;-54
2022/09/27 12:28:41;;;;;;;;;;;;;;;20.15;51.30;99806.75;7283688;19;154729;-54
2022/09/27 12:31:15;;;;;;;;;;;;;;;20.16;51.61;99809.22;7292854;19;152622;-54
2022/09/27 12:34:08;;;;;;;;;;;;;;;20.13;51.69;99803.44;7282967;19;153611;-55
2022/09/27 12:36:43;;;;;;;;;;;;;;;20.12;51.32;99801.81;7239925;19;155520;-54
2022/09/27 12:39:12;;;;;;;;;;;;;;;20.13;51.30;99795.84;7272913;19;152630;-55
2022/09/27 12:41:40;;;;;;;;;;;;;;;20.09;51.25;99797.66;7284246;19;154384;-55
2022/09/27 12:44:08;;;;;;;;;;;;;;;20.08;51.34;99796.03;7278889;19;153143;-55
2022/09/27 12:46:44;;;;;;;;;;;;;;;20.09;51.58;99800.47;7279932;19;153082;-55
2022/09/27 12:49:34;;;;;;;;;;;;;;;20.09;51.28;99799.66;7266463;19;153532;-55
2022/09/27 12:52:11;;;;;;;;;;;;;;;20.08;51.51;99795.22;7284187;19;152224;-55
2022/09/27 12:54:50;;;;;;;;;;;;;;;20.07;51.12;99805.63;7282283;19;153919;-55
2022/09/27 12:57:31;;;;;;;;;;;;;;;20.03;51.34;99804.63;7284054;19;152204;-55
2022/09/27 13:00:01;;;;;;;;;;;;;;;20.04;51.39;99808.22;7283882;19;152758;-55
2022/09/27 13:02:51;;;;;;;;;;;;;;;20.00;51.40;99810.88;7281471;19;154390;-56